Terminal Aerodrome Forecast
Issued by NWS

Home | Current Version | Previous Version | Text Only | Print | Product List | Glossary On
Versions: 1 2 3 4 5 6 7 8 9 10 11 12 13 14 15 16 17 18 19 20 21 22 23 24 25 26 27
690
FTUS42 KILM 221314 AAA
TAFCRE
TAF AMD
KCRE 221314Z 2213/2312 19006KT 6SM BR BKN040
      TEMPO 2213/2214 1SM BR BKN004 BKN025
     FM221400 18003KT 6SM BR SCT008 BKN025
     FM221500 18006KT P6SM SCT025
     FM230200 20004KT 6SM BR SKC
     FM230600 18002KT 4SM BR SCT250
     FM230900 00000KT 1/2SM FG SCT250=

USA.gov is the U.S. government's official web portal to all federal, state and local government web resources and services.